Tiempo atmosférico en la estación meteorológica de Castello d?Empuries, Girona (4 m.)

Fecha
DESCASC
Temp. máxima en grados centígrados (hora)
DESCASC
Temp. mínima en grados centígrados (hora)
DESCASC
Temp. media en grados centígrados
DESCASC
Racha de viento máxima en m/sg (hora)
DESCASC
Velocidad máxima media en intervalos de 10 minutos(hora)
DESCASC
Precipitaciones diarias en mm
DESCASC
Precipitaciones de 00:00 a 06:00 en mm
DESCASC
Precipitaciones de 06:00 a 12:00 en mm
DESCASC
Precipitaciones de 12:00 a 18:00 en mm
DESCASC
Precipitaciones de 18:00 a 24:00 en mm
DESCASC

Gráficas

Temp. máximas Temp. mínimas Temp. medias Precipitaciones Rachas de viento máximas Velocidades máximas media en intervalos de 10 minutos

Datos horarios

Fecha y hora oficial Temperatura (ºC) Velocidad del viento (km/h) Dirección del viento Racha (km/h) Dirección de racha Precipitación (mm) Presión (hPa) Tendencia (hPa) Humedad (%)
2017-09-24 23:00:00 17 0 Calma 5 Oeste 0 -- -- 93
2017-09-24 22:00:00 18.2 0 Calma 6 Noroeste 0 -- -- 90
2017-09-24 21:00:00 19.7 0 Calma -- -- 0 -- -- 88
2017-09-24 20:00:00 21.6 0 Calma 4 Sudeste 0 -- -- 82
2017-09-24 19:00:00 24.8 3 Sudeste 14 Sudeste 0 -- -- 66
2017-09-24 18:00:00 25.9 7 Sudeste 21 Este 0 -- -- 63
2017-09-24 17:00:00 24.6 9 Este 22 Sudeste 0 -- -- 79
2017-09-24 16:00:00 25.2 11 Sudeste 22 Este 0 -- -- 74
2017-09-24 15:00:00 24.8 9 Sudeste 19 Sudeste 0 -- -- 76
2017-09-24 14:00:00 23.1 7 Este 16 Este 0 -- -- 79
2017-09-24 13:00:00 22.6 6 Sudeste 13 Sudeste 0 -- -- 84
2017-09-24 12:00:00 18.9 3 Sudoeste 8 Sudoeste 0 -- -- 95
2017-09-24 11:00:00 17.7 3 Oeste 7 Sudoeste 0 -- -- 99
2017-09-24 10:00:00 16.8 4 Oeste 10 Sudoeste 0 -- -- 99
2017-09-24 09:00:00 15.8 4 Oeste 8 Oeste 0 -- -- 99
2017-09-24 08:00:00 15.2 2 Oeste 9 Oeste 0 -- -- 99
2017-09-24 07:00:00 15 4 Noroeste 9 Oeste 0 -- -- 100
2017-09-24 06:00:00 14.8 5 Noroeste 9 Noroeste 0 -- -- 100
2017-09-24 05:00:00 14.5 4 Oeste 8 Noroeste 0 -- -- 100
2017-09-24 04:00:00 14.1 4 Oeste 10 Noroeste 0 -- -- 99
2017-09-24 03:00:00 14.1 0 Calma 7 Oeste 0 -- -- 99
2017-09-24 02:00:00 14.5 4 Oeste 9 Oeste 0 -- -- 98
2017-09-24 01:00:00 15.4 4 Noroeste 6 Oeste 0 -- -- 96
2017-09-24 00:00:00 16.8 0 Calma 5 Noroeste 0 -- -- 96
2017-09-23 23:00:00 17.5 0 Calma -- -- 0 -- -- 97
2017-09-23 22:00:00 17.2 0 Calma -- -- 0 -- -- 95
2017-09-23 21:00:00 18.1 0 Calma 8 Sudeste 0 -- -- 92
2017-09-23 20:00:00 19.4 3 Sudeste 11 Sudeste 0 -- -- 89
2017-09-23 19:00:00 20.1 5 Sudeste 18 Sudeste 0 -- -- 86
2017-09-23 18:00:00 20.5 9 Sudeste 18 Sudeste 0 -- -- 84
2017-09-23 17:00:00 21.2 10 Sudeste 26 Sudeste 0 -- -- 80
2017-09-23 16:00:00 22.8 11 Sudeste 27 Sudeste 0 -- -- 74
2017-09-23 15:00:00 22.8 12 Sudeste 27 Sudeste 0 -- -- 76
2017-09-23 14:00:00 22.8 10 Este 24 Este 0 -- -- 75
2017-09-23 13:00:00 23.4 8 Sudeste 14 Sudeste 0 -- -- 72
2017-09-23 12:00:00 21 4 Este 8 Sudeste 0 -- -- 78
2017-09-23 11:00:00 18.6 3 Oeste 9 Oeste 0 -- -- 87
2017-09-23 10:00:00 17 3 Oeste 9 Sudoeste 0 -- -- 93
2017-09-23 09:00:00 14.9 2 Sudoeste 9 Sudoeste 0 -- -- 96
2017-09-23 08:00:00 13.6 5 Sudoeste 9 Sudoeste 0 -- -- 98
2017-09-23 07:00:00 13.3 4 Sudoeste 7 Oeste 0 -- -- 99
2017-09-23 06:00:00 13.7 0 Calma 3 Noroeste 0 -- -- 97
2017-09-23 05:00:00 14.7 2 Oeste 5 Oeste 0 -- -- 94
2017-09-23 04:00:00 15.8 2 Oeste 9 Sudoeste 0 -- -- 91
2017-09-23 03:00:00 16 5 Oeste 9 Oeste 0 -- -- 91
2017-09-23 02:00:00 16.5 3 Noroeste 8 Oeste 0 -- -- 89
2017-09-23 01:00:00 16.7 2 Oeste 5 Oeste 0 -- -- 93
2017-09-23 00:00:00 16.9 3 Noroeste 8 Oeste 0 -- -- 95
2017-09-22 23:00:00 17.1 2 Sudoeste 6 Sudoeste 0 -- -- 95
2017-09-22 22:00:00 17.9 2 Oeste 5 Oeste 0 -- -- 94
2017-09-22 21:00:00 18.5 3 Sudoeste 9 Sudoeste 0 -- -- 90
2017-09-22 20:00:00 19.8 4 Sur 25 Sudeste 0 -- -- 88
2017-09-22 19:00:00 20.3 10 Sudeste 21 Este 0 -- -- 87
2017-09-22 18:00:00 20.8 6 Este 20 Sudeste 0 -- -- 84
2017-09-22 17:00:00 22 11 Sudeste 20 Sudeste 0 -- -- 78
2017-09-22 16:00:00 24.4 9 Sudeste 22 Sudeste 0 -- -- 69
2017-09-22 15:00:00 24.6 8 Sudeste 22 Sudeste 0 -- -- 68
2017-09-22 14:00:00 23.9 8 Sudeste 15 Este 0 -- -- 63
2017-09-22 13:00:00 23 7 Sudeste 15 Sudeste 0 -- -- 66
2017-09-22 12:00:00 21.2 5 Sudeste 10 Sudeste 0 -- -- 71
2017-09-22 11:00:00 18.6 4 Oeste 8 Sudoeste 0 -- -- 82
2017-09-22 10:00:00 15.5 5 Oeste 8 Oeste 0 -- -- 92
2017-09-22 09:00:00 12.9 3 Oeste 8 Oeste 0 -- -- 99
2017-09-22 08:00:00 11.6 4 Oeste 8 Oeste 0 -- -- 100
2017-09-22 07:00:00 11.7 3 Noroeste 6 Oeste 0 -- -- 99
2017-09-22 06:00:00 12.3 4 Oeste 8 Oeste 0 -- -- 99
2017-09-22 05:00:00 12.7 4 Oeste 8 Oeste 0 -- -- 99
2017-09-22 04:00:00 13 3 Oeste 6 Oeste 0 -- -- 98
2017-09-22 03:00:00 13.5 3 Oeste 7 Sudoeste 0 -- -- 97
2017-09-22 02:00:00 14.2 4 Noroeste 7 Noroeste 0 -- -- 96
2017-09-22 01:00:00 14.8 4 Oeste 6 Oeste 0 -- -- 93
2017-09-22 00:00:00 15.8 4 Oeste 6 Noroeste 0 -- -- 90
2017-09-21 23:00:00 16.5 3 Noroeste 6 Noroeste 0 -- -- 87
2017-09-21 22:00:00 16.8 3 Noroeste 8 Noroeste 0 -- -- 86
2017-09-21 21:00:00 17.1 2 Noroeste 5 Noroeste 0 -- -- 89
2017-09-21 20:00:00 18.4 0 Calma 9 Este 0 -- -- 84
2017-09-21 19:00:00 20 3 Este 17 Sudeste 0 -- -- 76
2017-09-21 18:00:00 21.7 8 Sudeste 21 Este 0 -- -- 68
2017-09-21 17:00:00 22.3 9 Sudeste 22 Sudeste 0 -- -- 67
2017-09-21 16:00:00 23 9 Este 24 Sudeste 0 -- -- 64
2017-09-21 15:00:00 22.7 10 Este 25 Nordeste 0 -- -- 64
2017-09-21 14:00:00 23.1 9 Sudeste 19 Sudeste 0 -- -- 62
2017-09-21 13:00:00 23 9 Sudeste 17 Sudeste 0 -- -- 60
2017-09-21 12:00:00 21.5 6 Este 14 Sudeste 0 -- -- 61
2017-09-21 11:00:00 18.9 0 Calma 8 Noroeste 0 -- -- 69
2017-09-21 10:00:00 16.1 3 Oeste 7 Oeste 0 -- -- 83
2017-09-21 09:00:00 12.6 4 Oeste 8 Oeste 0 -- -- 97
2017-09-21 08:00:00 10.8 3 Oeste 6 Oeste 0 -- -- 99
2017-09-21 07:00:00 11.1 4 Sudoeste 9 Oeste 0 -- -- 99
2017-09-21 06:00:00 11.1 0 Calma 6 Sudoeste 0 -- -- 98
2017-09-21 05:00:00 11.3 0 Calma 5 Oeste 0 -- -- 96
2017-09-21 04:00:00 11.9 3 Noroeste 12 Sudoeste 0 -- -- 95
2017-09-21 03:00:00 12.5 5 Oeste 9 Oeste 0 -- -- 94
2017-09-21 02:00:00 12.8 4 Oeste 6 Oeste 0 -- -- 93
2017-09-21 01:00:00 13.3 4 Noroeste 8 Oeste 0 -- -- 90
2017-09-21 00:00:00 14.1 4 Oeste 8 Noroeste 0 -- -- 89
2017-09-20 23:00:00 14.8 0 Calma -- -- 0 -- -- 91
2017-09-20 22:00:00 15.9 0 Calma 5 Sudoeste 0 -- -- 87
2017-09-20 21:00:00 17.8 3 Sudoeste 10 Sur 0 -- -- 80
2017-09-20 20:00:00 19.6 5 Sur 14 Este 0 -- -- 69
2017-09-20 19:00:00 21.2 7 Este 22 Este 0 -- -- 64
2017-09-20 18:00:00 23 10 Sudeste 21 Este 0 -- -- 52
2017-09-20 17:00:00 24.5 9 Sudeste 22 Sudeste 0 -- -- 51
2017-09-20 16:00:00 25.1 10 Sudeste 20 Sudeste 0 -- -- 43
2017-09-20 15:00:00 23.7 9 Este 19 Este 0 -- -- 42
2017-09-20 14:00:00 23.7 9 Sudeste 24 Sudeste 0 -- -- 45
2017-09-20 13:00:00 22.5 8 Sudeste 22 Nordeste 0 -- -- 43
2017-09-20 12:00:00 21.9 11 Noroeste 30 Noroeste 0 -- -- 37
2017-09-20 11:00:00 20.3 13 Noroeste 32 Norte 0 -- -- 41
2017-09-20 10:00:00 18.1 15 Noroeste 29 Noroeste 0 -- -- 52
2017-09-20 09:00:00 16.4 9 Noroeste 24 Noroeste 0 -- -- 57
2017-09-20 08:00:00 14.9 12 Noroeste 22 Noroeste 0 -- -- 61
2017-09-20 07:00:00 14.5 10 Noroeste 22 Noroeste 0 -- -- 62
2017-09-20 06:00:00 14.8 10 Noroeste 19 Noroeste 0 -- -- 59
2017-09-20 05:00:00 14.6 10 Norte 23 Norte 0 -- -- 60
2017-09-20 04:00:00 15 12 Norte 28 Norte 0 -- -- 60
2017-09-20 03:00:00 15.7 16 Noroeste 41 Norte 0 -- -- 57
2017-09-20 02:00:00 16.5 19 Norte 35 Noroeste 0 -- -- 54
2017-09-20 01:00:00 17 12 Noroeste 31 Noroeste 0 -- -- 55
2017-09-20 00:00:00 17.4 14 Noroeste 27 Norte 0 -- -- 53
2017-09-19 23:00:00 17.5 16 Norte 28 Noroeste 0 -- -- 45
2017-09-19 22:00:00 18.8 13 Noroeste 35 Norte 0 -- -- 39
2017-09-19 21:00:00 19.3 19 Noroeste 38 Noroeste 0 -- -- 38
2017-09-19 20:00:00 19.6 17 Noroeste 40 Norte 0 -- -- 39
2017-09-19 19:00:00 20.7 21 Norte 38 Norte 0 -- -- 39
2017-09-19 18:00:00 22.3 23 Noroeste 50 Noroeste 0 -- -- 36
2017-09-19 17:00:00 22.6 28 Norte 53 Norte 0 -- -- 35
2017-09-19 16:00:00 23 28 Norte 51 Noroeste 0 -- -- 35
2017-09-19 15:00:00 22.8 24 Noroeste 53 Norte 0 -- -- 35
2017-09-19 14:00:00 22 26 Noroeste 48 Norte 0 -- -- 38
2017-09-19 13:00:00 21.4 20 Noroeste 45 Norte 0 -- -- 41
2017-09-19 12:00:00 20.3 27 Norte 46 Norte 0 -- -- 44
2017-09-19 11:00:00 19.3 22 Noroeste 45 Noroeste 0 -- -- 46
2017-09-19 10:00:00 18 18 Norte 41 Noroeste 0 -- -- 55
2017-09-19 09:00:00 16.3 18 Norte 28 Norte 0 -- -- 64
2017-09-19 08:00:00 14.9 18 Norte 30 Norte 0 -- -- 70
2017-09-19 07:00:00 15 15 Norte 35 Noroeste 0 -- -- 68
2017-09-19 06:00:00 13.3 12 Noroeste 24 Norte 0 -- -- 82
2017-09-19 05:00:00 11.1 5 Oeste 10 Oeste 0 -- -- 93
2017-09-19 04:00:00 12.2 6 Noroeste 13 Noroeste 0 -- -- 90
2017-09-19 03:00:00 13.7 6 Noroeste 15 Noroeste 0 -- -- 83
2017-09-19 02:00:00 13.8 4 Oeste 15 Sudoeste 0 -- -- 80
2017-09-19 01:00:00 14.5 8 Oeste 15 Oeste 0 -- -- 75
2017-09-19 00:00:00 15.2 8 Noroeste 20 Noroeste 0 -- -- 71
2017-09-18 23:00:00 15.1 8 Noroeste 17 Oeste 0 -- -- 72
2017-09-18 22:00:00 16.1 6 Sudoeste 18 Noroeste 0 -- -- 69
2017-09-18 21:00:00 17.3 8 Noroeste 29 Noroeste 0 -- -- 65
2017-09-18 20:00:00 18.1 15 Norte 27 Noroeste 0 -- -- 67
2017-09-18 19:00:00 18.6 4 Este 15 Sudeste 0 -- -- 76
2017-09-18 18:00:00 20.6 6 Este 23 Sudeste 0 -- -- 69
2017-09-18 17:00:00 21.7 10 Sudeste 19 Sudeste 0 -- -- 64
2017-09-18 16:00:00 20.3 3 Norte 12 Nordeste 0 -- -- 61
2017-09-18 15:00:00 19.1 6 Norte 16 Norte 0 -- -- 67
2017-09-18 14:00:00 17.3 0 Calma 8 Sur 0 -- -- 84
2017-09-18 13:00:00 15.6 4 Sudoeste 8 Sudoeste 0.2 -- -- 92
2017-09-18 12:00:00 14.7 3 Sudoeste 10 Oeste 0.2 -- -- 96
2017-09-18 11:00:00 14.3 4 Oeste 8 Oeste 0.2 -- -- 95
2017-09-18 10:00:00 13.8 3 Sudoeste 8 Sudoeste 0 -- -- 94
2017-09-18 09:00:00 12.8 4 Sudoeste 8 Sudoeste 0 -- -- 96
2017-09-18 08:00:00 12.3 4 Oeste 8 Sudoeste 0 -- -- 95
2017-09-18 07:00:00 11.8 4 Oeste 7 Noroeste 0 -- -- 98
2017-09-18 06:00:00 11.2 3 Oeste 8 Sudoeste 0 -- -- 98
2017-09-18 05:00:00 11.5 4 Oeste 7 Sudoeste 0 -- -- 97
2017-09-18 04:00:00 12.3 3 Oeste 8 Noroeste 0 -- -- 95
2017-09-18 03:00:00 12.8 4 Oeste 6 Oeste 0 -- -- 95
2017-09-18 02:00:00 13.4 3 Oeste 9 Oeste 0 -- -- 93
2017-09-18 01:00:00 14.2 0 Calma 6 Oeste 0 -- -- 92
2017-09-18 00:00:00 14.5 0 Calma -- -- 0 -- -- 95
2017-09-17 23:00:00 15 0 Calma -- -- 0 -- -- 91
2017-09-17 22:00:00 15.8 0 Calma 8 Este 0 -- -- 85
2017-09-17 21:00:00 16.4 2 Este 13 Nordeste 0 -- -- 79
2017-09-17 20:00:00 17.6 6 Nordeste 16 Nordeste 0 -- -- 70
2017-09-17 19:00:00 19.2 10 Este 26 Este 0 -- -- 73
2017-09-17 18:00:00 20.1 10 Este 28 Este 0 -- -- 71
2017-09-17 17:00:00 19.7 15 Este 28 Este 0 -- -- 68
2017-09-17 16:00:00 20 13 Este 28 Este 0 -- -- 68
2017-09-17 15:00:00 20.1 10 Este 25 Este 0 -- -- 67
2017-09-17 14:00:00 20.5 9 Este 24 Este 0 -- -- 68
2017-09-17 13:00:00 20 8 Sudeste 19 Este 0 -- -- 67
2017-09-17 12:00:00 17.7 5 Oeste 11 Oeste 0 -- -- 69
2017-09-17 11:00:00 14.7 0 Calma 8 Oeste 0 -- -- 87
2017-09-17 10:00:00 12.5 0 Calma 5 Sudoeste 0 -- -- 97
2017-09-17 09:00:00 10.6 3 Oeste 7 Noroeste 0 -- -- 100
2017-09-17 08:00:00 9.7 3 Oeste 6 Oeste 0 -- -- 100
2017-09-17 07:00:00 9.6 0 Calma -- -- 0 -- -- 100
2017-09-17 06:00:00 9.4 0 Calma 8 Oeste 0 -- -- 100
2017-09-17 05:00:00 9.3 5 Oeste 9 Sudoeste 0 -- -- 100
2017-09-17 04:00:00 9.1 0 Calma -- -- 0 -- -- 100
2017-09-17 03:00:00 9.4 0 Calma 7 Sudoeste 0 -- -- 99
2017-09-17 02:00:00 10.6 2 Oeste 9 Sudoeste 0 -- -- 98
2017-09-17 01:00:00 11.8 3 Oeste 12 Oeste 0 -- -- 98
2017-09-17 00:00:00 12.3 4 Noroeste 24 Norte 1.4 -- -- 95
2017-09-16 23:00:00 12.6 4 Noroeste 22 Oeste 0 -- -- 95
2017-09-16 22:00:00 12.7 10 Noroeste 20 Noroeste 0 -- -- 98
2017-09-16 21:00:00 12.6 3 Noroeste 12 Noroeste 0 -- -- 100
2017-09-16 20:00:00 12.9 5 Oeste 11 Noroeste 1.4 -- -- 98
2017-09-16 19:00:00 13.1 3 Sudoeste 8 Sudeste 4.2 -- -- 97
2017-09-16 18:00:00 14.5 6 Sudeste 20 Este 14.4 -- -- 88
2017-09-16 17:00:00 17.6 11 Sudeste 30 Sudeste 0 -- -- 72
2017-09-16 16:00:00 19.9 9 Este 20 Nordeste 0 -- -- 54
2017-09-16 15:00:00 22.2 9 Este 20 Este 0 -- -- 48
2017-09-16 14:00:00 21.2 5 Sudeste 14 Sudoeste 0 -- -- 57
2017-09-16 13:00:00 20 8 Norte 17 Noroeste 0 -- -- 54
2017-09-16 12:00:00 18.3 11 Noroeste 18 Noroeste 0 -- -- 57
2017-09-16 11:00:00 17.1 3 Noroeste 13 Noroeste 0 -- -- 70
2017-09-16 10:00:00 15.2 7 Noroeste 13 Noroeste 0 -- -- 74
2017-09-16 09:00:00 10.7 6 Oeste 13 Oeste 0 -- -- 99
2017-09-16 08:00:00 8.5 6 Sudoeste 11 Sudoeste 0 -- -- 100
2017-09-16 07:00:00 8.8 6 Sudoeste 12 Oeste 0 -- -- 100
2017-09-16 06:00:00 9 7 Oeste 12 Oeste 0 -- -- 100
2017-09-16 05:00:00 8.8 5 Sudoeste 9 Oeste 0 -- -- 100
2017-09-16 04:00:00 9 4 Sudoeste 8 Sur 0 -- -- 100
2017-09-16 03:00:00 9.3 0 Calma 7 Oeste 0 -- -- 100
2017-09-16 02:00:00 9.9 2 Oeste 7 Sudoeste 0 -- -- 100
2017-09-16 01:00:00 10.6 3 Sudoeste 9 Sudoeste 0 -- -- 100
2017-09-16 00:00:00 10.7 2 Este 6 Sudoeste 0 -- -- 100
2017-09-15 23:00:00 11.3 0 Calma 6 Sudoeste 0 -- -- 100
2017-09-15 22:00:00 11.7 0 Calma 5 Oeste 0 -- -- 99
2017-09-15 21:00:00 12.6 2 Norte 7 Oeste 0 -- -- 98
2017-09-15 20:00:00 13 2 Oeste 9 Oeste 0.2 -- -- 98
2017-09-15 19:00:00 13.6 3 Sudoeste 7 Sudoeste 1.2 -- -- 96
2017-09-15 18:00:00 14.4 0 Calma 18 Noroeste 0.2 -- -- 92
2017-09-15 17:00:00 15.1 4 Noroeste 12 Noroeste 0.4 -- -- 90
2017-09-15 16:00:00 15.3 4 Oeste 12 Oeste 0.4 -- -- 91
2017-09-15 15:00:00 15.5 4 Oeste 11 Oeste 0.4 -- -- 90
2017-09-15 14:00:00 15.7 4 Oeste 11 Oeste 0 -- -- 88
2017-09-15 13:00:00 15.3 4 Sudoeste 10 Sudoeste 0.6 -- -- 93
2017-09-15 12:00:00 14.4 5 Oeste 10 Oeste 0 -- -- 96
2017-09-15 11:00:00 13.9 4 Sudoeste 11 Sudoeste 0.2 -- -- 98
2017-09-15 10:00:00 13.7 2 Noroeste 6 Noroeste 1.4 -- -- 95
2017-09-15 09:00:00 13.8 3 Oeste 9 Oeste 0.8 -- -- 96
2017-09-15 08:00:00 13.9 4 Sudoeste 9 Sudoeste 0.4 -- -- 99
2017-09-15 07:00:00 13.9 4 Sudoeste 9 Sudoeste 0 -- -- 99
2017-09-15 06:00:00 13.9 3 Sudoeste 9 Sur 0.6 -- -- 98
2017-09-15 05:00:00 14.1 4 Sudoeste 8 Sur 1.6 -- -- 96
2017-09-15 04:00:00 15.1 2 Noroeste 15 Noroeste 2.2 -- -- 89
2017-09-15 03:00:00 16.8 6 Noroeste 13 Noroeste 0 -- -- 71
2017-09-15 02:00:00 17.5 9 Noroeste 17 Noroeste 0 -- -- 66
2017-09-15 01:00:00 17.6 6 Noroeste 19 Noroeste 0 -- -- 67
2017-09-15 00:00:00 18 9 Noroeste 22 Norte 0 -- -- 62
2017-09-14 23:00:00 17.6 9 Noroeste 25 Norte 0 -- -- 64
2017-09-14 22:00:00 16.2 4 Oeste 11 Norte 0 -- -- 84
2017-09-14 21:00:00 16 8 Noroeste 15 Norte 0.6 -- -- 82
2017-09-14 20:00:00 16.3 0 Calma 23 Noroeste 0.6 -- -- 86
2017-09-14 19:00:00 17.9 14 Noroeste 36 Noroeste 0.4 -- -- 72
2017-09-14 18:00:00 20.6 19 Noroeste 39 Norte 0 -- -- 53
2017-09-14 17:00:00 23.5 20 Norte 36 Norte 0 -- -- 46
2017-09-14 16:00:00 24.7 21 Norte 34 Noroeste 0 -- -- 45
2017-09-14 15:00:00 24.8 18 Noroeste 40 Norte 0 -- -- 45
2017-09-14 14:00:00 22.5 21 Noroeste 40 Norte 0 -- -- 51
2017-09-14 13:00:00 26.5 5 Este 17 Sudeste 0 -- -- 58
2017-09-14 12:00:00 25.3 0 Calma 0 Calma 0 -- -- 61
2017-09-14 11:00:00 23.7 0 Calma 0 Calma 0 -- -- 68
2017-09-14 10:00:00 20.3 0 Calma 0 Calma 0 -- -- 86
2017-09-14 09:00:00 16.9 0 Calma 0 Calma 0 -- -- 100
2017-09-14 08:00:00 14.7 0 Calma 0 Calma 0 -- -- 99
2017-09-14 07:00:00 15.1 0 Calma -- -- 0 -- -- 99
2017-09-14 06:00:00 15.4 0 Calma -- -- 0 -- -- 99
2017-09-14 05:00:00 15.8 0 Calma -- -- 0 -- -- 99
2017-09-14 04:00:00 16.1 0 Calma -- -- 0 -- -- 97
2017-09-14 03:00:00 16.8 0 Calma 5 Sudoeste 0 -- -- 96
2017-09-14 02:00:00 17.4 0 Calma -- -- 0 -- -- 95
2017-09-14 01:00:00 17.8 0 Calma -- -- 0 -- -- 93
2017-09-14 00:00:00 18.7 0 Calma 7 Oeste 0 -- -- 92
2017-09-13 23:00:00 19.5 0 Calma 5 Este 0 -- -- 89
2017-09-13 22:00:00 20.8 0 Calma 6 Este 0 -- -- 86
2017-09-13 21:00:00 22.8 3 Sudeste 15 Sur 0 -- -- 75
2017-09-13 20:00:00 24.9 5 Sudeste 18 Sur 0 -- -- 65
2017-09-13 19:00:00 27.7 10 Sudeste 25 Sudeste 0 -- -- 55
2017-09-13 18:00:00 27.7 7 Este 26 Este 0 -- -- 62
2017-09-13 17:00:00 25.8 12 Este 25 Este 0 -- -- 72
2017-09-13 16:00:00 24.8 15 Este 28 Este 0 -- -- 75
2017-09-13 15:00:00 25.5 12 Este 28 Este 0 -- -- 70
2017-09-13 14:00:00 25 9 Este 22 Sudeste 0 -- -- 67
2017-09-13 13:00:00 24.4 9 Sudeste 17 Este 0 -- -- 71
2017-09-13 12:00:00 24.4 8 Este 17 Este 0 -- -- 62
2017-09-13 11:00:00 22.2 2 Norte 7 Oeste 0 -- -- 68
2017-09-13 10:00:00 18.9 3 Sudoeste 12 Oeste 0 -- -- 82
2017-09-13 09:00:00 15.8 5 Oeste 9 Oeste 0 -- -- 93
2017-09-13 08:00:00 13.7 2 Oeste 6 Oeste 0 -- -- 98
2017-09-13 07:00:00 13.9 3 Oeste 8 Sudoeste 0 -- -- 95
2017-09-13 06:00:00 14.4 5 Oeste 9 Noroeste 0 -- -- 93
2017-09-13 05:00:00 14.6 3 Oeste 5 Noroeste 0 -- -- 94
2017-09-13 04:00:00 15.7 0 Calma 8 Oeste 0 -- -- 89
2017-09-13 03:00:00 16.7 3 Oeste 7 Noroeste 0 -- -- 91
2017-09-13 02:00:00 17.1 0 Calma -- -- 0 -- -- 90
2017-09-13 01:00:00 17.9 0 Calma -- -- 0 -- -- 86
2017-09-13 00:00:00 18.2 0 Calma 4 Sudoeste 0 -- -- 83
2017-09-12 23:00:00 18.7 0 Calma 3 Sudoeste 0 -- -- 80
2017-09-12 22:00:00 19.8 0 Calma 9 Sudoeste 0 -- -- 74
2017-09-12 21:00:00 20.7 3 Oeste 9 Sudoeste 0 -- -- 66
2017-09-12 20:00:00 21.4 5 Sur 15 Sudoeste 0 -- -- 60
2017-09-12 19:00:00 22.7 7 Sur 19 Sudeste 0 -- -- 57
2017-09-12 18:00:00 24.5 9 Sur 16 Sudeste 0 -- -- 52
2017-09-12 17:00:00 24.3 8 Este 18 Nordeste 0 -- -- 47
2017-09-12 16:00:00 25.5 6 Sur 19 Sudeste 0 -- -- 48
2017-09-12 15:00:00 24.7 10 Sudeste 21 Este 0 -- -- 48
2017-09-12 14:00:00 23.9 7 Norte 28 Norte 0 -- -- 45
2017-09-12 13:00:00 22.8 5 Nordeste 19 Noroeste 0 -- -- 51
2017-09-12 12:00:00 21.4 13 Noroeste 26 Noroeste 0 -- -- 51
2017-09-12 11:00:00 20.9 13 Noroeste 26 Oeste 0 -- -- 52
2017-09-12 10:00:00 19.2 9 Noroeste 20 Oeste 0 -- -- 58
2017-09-12 09:00:00 18.2 5 Norte 25 Noroeste 0 -- -- 66
2017-09-12 08:00:00 17.1 9 Noroeste 18 Norte 0 -- -- 76
2017-09-12 07:00:00 16.1 0 Calma 8 Sudoeste 0 -- -- 93
2017-09-12 06:00:00 16.5 0 Calma 8 Sur 0.6 -- -- 91
2017-09-12 05:00:00 18 0 Calma 10 Noroeste 0 -- -- 71
2017-09-12 04:00:00 18.9 7 Norte 18 Norte 0 -- -- 63
2017-09-12 03:00:00 19.6 6 Norte 14 Noroeste 0 -- -- 60
2017-09-12 02:00:00 19.4 6 Noroeste 12 Noroeste 0 -- -- 64
2017-09-12 01:00:00 19.5 4 Oeste 9 Oeste 0 -- -- 65
2017-09-12 00:00:00 19.7 4 Oeste 10 Norte 0 -- -- 66
2017-09-11 23:00:00 20.3 3 Noroeste 11 Noroeste 0 -- -- 62
2017-09-11 22:00:00 20.7 8 Noroeste 18 Norte 0 -- -- 60
2017-09-11 21:00:00 21.4 3 Noroeste 8 Noroeste 0 -- -- 67
2017-09-11 20:00:00 22 4 Oeste 8 Oeste 0 -- -- 69
2017-09-11 19:00:00 22.5 4 Sur 14 Sur 0 -- -- 68
2017-09-11 18:00:00 23.8 10 Sur 25 Sudeste 0 -- -- 64
2017-09-11 17:00:00 25.7 13 Sudeste 28 Norte 0 -- -- 58
2017-09-11 16:00:00 26.3 10 Norte 22 Norte 0 -- -- 50
2017-09-11 15:00:00 25.9 10 Noroeste 21 Noroeste 0 -- -- 51
2017-09-11 14:00:00 24.5 10 Noroeste 22 Norte 0 -- -- 56
2017-09-11 13:00:00 25.6 8 Este 17 Sudeste 0 -- -- 56
2017-09-11 12:00:00 24.1 7 Nordeste 14 Este 0 -- -- 62
2017-09-11 11:00:00 19.3 4 Norte 9 Noroeste 0 -- -- 72
2017-09-11 10:00:00 16.4 4 Noroeste 9 Oeste 0 -- -- 84
2017-09-11 09:00:00 14 4 Oeste 10 Oeste 0 -- -- 90
2017-09-11 08:00:00 12.1 4 Oeste 9 Noroeste 0 -- -- 95
2017-09-11 07:00:00 12.3 3 Oeste 9 Sudoeste 0 -- -- 93
2017-09-11 06:00:00 13 3 Oeste 9 Sudoeste 0 -- -- 91
2017-09-11 05:00:00 13.9 3 Sudoeste 14 Noroeste 0 -- -- 87
2017-09-11 04:00:00 13.9 6 Oeste 10 Oeste 0 -- -- 84
2017-09-11 03:00:00 15.3 4 Sudoeste 10 Oeste 0 -- -- 77
2017-09-11 02:00:00 15.6 4 Oeste 9 Noroeste 0 -- -- 72
2017-09-11 01:00:00 17.4 5 Oeste 20 Norte 0 -- -- 63
2017-09-11 00:00:00 17.1 6 Noroeste 14 Norte 0 -- -- 61
2017-09-10 23:00:00 17.7 8 Noroeste 16 Noroeste 0 -- -- 57
2017-09-10 22:00:00 18.7 6 Noroeste 28 Norte 0 -- -- 54
2017-09-10 21:00:00 20.2 15 Noroeste 34 Noroeste 0 -- -- 48
2017-09-10 20:00:00 21 20 Noroeste 52 Norte 0 -- -- 45
2017-09-10 19:00:00 22.2 35 Norte 58 Norte 0 -- -- 42
2017-09-10 18:00:00 23 33 Norte 64 Norte 0 -- -- 43
2017-09-10 17:00:00 23.6 34 Norte 65 Noroeste 0 -- -- 41
2017-09-10 16:00:00 23.7 32 Noroeste 67 Noroeste 0 -- -- 39
2017-09-10 15:00:00 23.1 36 Noroeste 63 Norte 0 -- -- 39
2017-09-10 14:00:00 22.6 29 Noroeste 63 Noroeste 0 -- -- 43
2017-09-10 13:00:00 21.4 31 Norte 64 Norte 0 -- -- 48
2017-09-10 12:00:00 20.2 30 Noroeste 60 Noroeste 0 -- -- 48
2017-09-10 11:00:00 19.2 30 Norte 54 Noroeste 0 -- -- 54
2017-09-10 10:00:00 18.8 21 Norte 45 Noroeste 0 -- -- 55
2017-09-10 09:00:00 17.8 14 Norte 40 Norte 0 -- -- 55
2017-09-10 08:00:00 16.6 20 Norte 40 Norte 0 -- -- 57
2017-09-10 07:00:00 16 19 Norte 42 Noroeste 0 -- -- 57
2017-09-10 06:00:00 16.2 21 Noroeste 42 Noroeste 0 -- -- 58
2017-09-10 05:00:00 16.1 17 Noroeste 34 Noroeste 0 -- -- 61
2017-09-10 04:00:00 15.4 4 Oeste 38 Noroeste 0 -- -- 70
2017-09-10 03:00:00 17 14 Noroeste 44 Noroeste 0 -- -- 58
2017-09-10 02:00:00 15.9 12 Noroeste 26 Norte 0 -- -- 69
2017-09-10 01:00:00 13.9 5 Oeste 18 Noroeste 0 -- -- 88
2017-09-10 00:00:00 13.2 5 Noroeste 14 Noroeste 0 -- -- 99
2017-09-09 23:00:00 13.4 5 Sudoeste 12 Norte 0 -- -- 100
2017-09-09 22:00:00 13.5 3 Nordeste 8 Sudoeste 0 -- -- 99
2017-09-09 21:00:00 14.3 3 Oeste 8 Sudoeste 0 -- -- 99
2017-09-09 20:00:00 14.6 4 Oeste 9 Sudoeste 0.6 -- -- 99
2017-09-09 19:00:00 14.8 6 Sudoeste 16 Sudoeste 1 -- -- 98
2017-09-09 18:00:00 14.9 3 Oeste 11 Norte 0.8 -- -- 98
2017-09-09 17:00:00 14.8 6 Norte 18 Nordeste 2.6 -- -- 95
2017-09-09 16:00:00 14.6 6 Este 24 Norte 4.2 -- -- 96
2017-09-09 15:00:00 14.8 14 Norte 26 Norte 2.4 -- -- 91
2017-09-09 14:00:00 18.8 14 Norte 37 Norte 0 -- -- 61
2017-09-09 13:00:00 19.9 18 Norte 38 Noroeste 0 -- -- 55
2017-09-09 12:00:00 22.3 9 Noroeste 18 Noroeste 0 -- -- 64
2017-09-09 11:00:00 20.4 5 Oeste 10 Oeste 0 -- -- 77
2017-09-09 10:00:00 17.5 3 Sudoeste 9 Sudoeste 0 -- -- 93
2017-09-09 09:00:00 16 0 Calma 8 Sudoeste 0 -- -- 97
2017-09-09 08:00:00 14.5 4 Oeste 6 Oeste 0 -- -- 99
2017-09-09 07:00:00 13.8 4 Noroeste 7 Oeste 0 -- -- 98
2017-09-09 06:00:00 14.1 0 Calma 8 Oeste 0 -- -- 97
2017-09-09 05:00:00 14.4 4 Oeste 8 Noroeste 0 -- -- 98
2017-09-09 04:00:00 14.6 0 Calma 8 Noroeste 0 -- -- 95
2017-09-09 03:00:00 15.4 2 Oeste 7 Sur 0 -- -- 95
2017-09-09 02:00:00 16.3 0 Calma 6 Noroeste 0 -- -- 94
2017-09-09 01:00:00 16.8 0 Calma 6 Oeste 0 -- -- 94
2017-09-09 00:00:00 17.3 0 Calma 5 Sur 0 -- -- 94
2017-09-08 23:00:00 17.8 0 Calma 6 Sudeste 0 -- -- 92
2017-09-08 22:00:00 18.3 4 Sudeste 8 Sudeste 0 -- -- 88
2017-09-08 21:00:00 19.9 5 Sudeste 13 Sudeste 0 -- -- 79
2017-09-08 20:00:00 21.7 7 Sudeste 23 Sudeste 0 -- -- 71
2017-09-08 19:00:00 23.4 12 Sur 28 Sudeste 0 -- -- 64
2017-09-08 18:00:00 24.1 10 Sudeste 26 Sudeste 0 -- -- 62
2017-09-08 17:00:00 25.1 12 Sudeste 25 Sudeste 0 -- -- 53
2017-09-08 16:00:00 25.6 12 Este 26 Este 0 -- -- 50
2017-09-08 15:00:00 25.8 10 Este 21 Sudeste 0 -- -- 49
2017-09-08 14:00:00 26.9 10 Sudeste 18 Sudeste 0 -- -- 46
2017-09-08 13:00:00 25.7 10 Sudeste 21 Sudeste 0 -- -- 48
2017-09-08 12:00:00 24 5 Noroeste 14 Sudoeste 0 -- -- 46
2017-09-08 11:00:00 23.1 4 Oeste 9 Oeste 0 -- -- 46
2017-09-08 10:00:00 21 3 Sudeste 8 Noroeste 0 -- -- 54
2017-09-08 09:00:00 18.7 6 Noroeste 10 Noroeste 0 -- -- 59
2017-09-08 08:00:00 18.1 0 Calma 10 Noroeste 0 -- -- 63
2017-09-08 07:00:00 18.4 2 Norte 13 Noroeste 0 -- -- 57
2017-09-08 06:00:00 18.6 8 Noroeste 13 Noroeste 0 -- -- 56
2017-09-08 05:00:00 16.1 8 Noroeste 13 Noroeste 0 -- -- 66
2017-09-08 04:00:00 16.1 6 Noroeste 9 Noroeste 0 -- -- 66
2017-09-08 03:00:00 18.5 5 Norte 14 Norte 0 -- -- 58
2017-09-08 02:00:00 19.5 8 Noroeste 16 Noroeste 0 -- -- 52
2017-09-08 01:00:00 19.2 8 Noroeste 13 Noroeste 0 -- -- 53
2017-09-08 00:00:00 17.9 3 Noroeste 14 Oeste 0 -- -- 62
2017-09-07 23:00:00 17 0 Calma 7 Noroeste 0 -- -- 66
2017-09-07 22:00:00 19.2 3 Noroeste 17 Norte 0 -- -- 57
2017-09-07 21:00:00 21.1 7 Norte 26 Noroeste 0 -- -- 48
2017-09-07 20:00:00 22.7 11 Norte 21 Noroeste 0 -- -- 44
2017-09-07 19:00:00 25.4 10 Noroeste 23 Norte 0 -- -- 40
2017-09-07 18:00:00 26.7 10 Noroeste 23 Noroeste 0 -- -- 40
2017-09-07 17:00:00 27 4 Sur 14 Nordeste 0 -- -- 42
2017-09-07 16:00:00 27.1 6 Este 16 Este 0 -- -- 43
2017-09-07 15:00:00 27.5 6 Sudeste 15 Noroeste 0 -- -- 42
2017-09-07 14:00:00 26.7 7 Noroeste 21 Noroeste 0 -- -- 40
2017-09-07 13:00:00 25.7 10 Noroeste 30 Noroeste 0 -- -- 40
2017-09-07 12:00:00 24.3 9 Noroeste 20 Noroeste 0 -- -- 43
2017-09-07 11:00:00 22.4 4 Oeste 15 Norte 0 -- -- 47
2017-09-07 10:00:00 21.6 9 Norte 27 Norte 0 -- -- 48
2017-09-07 09:00:00 19.8 11 Norte 22 Noroeste 0 -- -- 55
2017-09-07 08:00:00 18.5 9 Noroeste 17 Noroeste 0 -- -- 62
2017-09-07 07:00:00 17.4 6 Noroeste 12 Noroeste 0 -- -- 72
2017-09-07 06:00:00 17.6 0 Calma 6 Noroeste 0 -- -- 77
2017-09-07 05:00:00 19 5 Noroeste 10 Noroeste 0 -- -- 66
2017-09-07 04:00:00 18.9 4 Noroeste 13 Noroeste 0 -- -- 68
2017-09-07 03:00:00 19.5 3 Nordeste 12 Noroeste 0 -- -- 67
2017-09-07 02:00:00 19.8 7 Noroeste 17 Noroeste 0 -- -- 64
2017-09-07 01:00:00 20.3 8 Noroeste 24 Noroeste 0 -- -- 61
2017-09-07 00:00:00 21.7 14 Noroeste 31 Noroeste 0 -- -- 56
2017-09-06 23:00:00 20.1 12 Noroeste 19 Noroeste 0 -- -- 65
2017-09-06 22:00:00 19.8 2 Sudoeste 9 Norte 0 -- -- 73
2017-09-06 21:00:00 21.9 5 Norte 19 Norte 0 -- -- 63
2017-09-06 20:00:00 23.2 3 Oeste 15 Sudoeste 0 -- -- 74
2017-09-06 19:00:00 24.3 4 Sudeste 10 Sudeste 0 -- -- 69
2017-09-06 18:00:00 24.3 8 Sudeste 17 Sudeste 0 -- -- 70
2017-09-06 17:00:00 25.5 9 Sudeste 21 Sudeste 0 -- -- 66
2017-09-06 16:00:00 26.5 9 Sudeste 14 Sudeste 0 -- -- 63
2017-09-06 15:00:00 26.1 4 Oeste 11 Oeste 0 -- -- 57
2017-09-06 14:00:00 25.2 6 Noroeste 17 Noroeste 0 -- -- 59
2017-09-06 13:00:00 24.5 9 Noroeste 28 Noroeste 0 -- -- 61
2017-09-06 12:00:00 24.5 12 Noroeste 30 Noroeste 0 -- -- 60
2017-09-06 11:00:00 23.7 17 Noroeste 30 Noroeste 0 -- -- 61
2017-09-06 10:00:00 23.7 17 Noroeste 34 Noroeste 0 -- -- 61
2017-09-06 09:00:00 23.7 13 Noroeste 27 Noroeste 0 -- -- 64
2017-09-06 08:00:00 22.6 9 Noroeste 19 Noroeste 0 -- -- 70
2017-09-06 07:00:00 22 8 Noroeste 17 Noroeste 0 -- -- 74
2017-09-06 06:00:00 22 8 Noroeste 15 Oeste 0 -- -- 74
2017-09-06 05:00:00 22.1 4 Noroeste 12 Noroeste 0 -- -- 76
2017-09-06 04:00:00 22.4 4 Noroeste 10 Noroeste 0 -- -- 79
2017-09-06 03:00:00 21.1 0 Calma -- -- 0 -- -- 87
2017-09-06 02:00:00 21.9 0 Calma 6 Este 0 -- -- 84
2017-09-06 01:00:00 23.1 7 Noroeste 13 Noroeste 0 -- -- 74
2017-09-06 00:00:00 22.3 0 Calma 6 Noroeste 0 -- -- 89
2017-09-05 23:00:00 23.2 4 Oeste 6 Sudoeste 0 -- -- 88
2017-09-05 22:00:00 23.3 2 Noroeste 5 Nordeste 0 -- -- 89
2017-09-05 21:00:00 23.5 3 Nordeste 5 Nordeste 0 -- -- 88
2017-09-05 20:00:00 24.6 3 Este 10 Este 0 -- -- 82
2017-09-05 19:00:00 26 6 Este 23 Este 0 -- -- 79
2017-09-05 18:00:00 26.6 12 Este 28 Este 0 -- -- 76
2017-09-05 17:00:00 27.1 15 Este 29 Este 0 -- -- 71
2017-09-05 16:00:00 27.1 18 Este 33 Este 0 -- -- 71
2017-09-05 15:00:00 27.3 15 Este 34 Sudeste 0 -- -- 68
2017-09-05 14:00:00 27.2 16 Este 27 Este 0 -- -- 67
2017-09-05 13:00:00 27.8 9 Este 20 Este 0 -- -- 60
2017-09-05 12:00:00 28.3 7 Este 13 Sudeste 0 -- -- 56
2017-09-05 11:00:00 26.2 3 Este 8 Este 0 -- -- 59
2017-09-05 10:00:00 22.1 2 Noroeste 6 Sudoeste 0 -- -- 76
2017-09-05 09:00:00 18.9 4 Oeste 7 Oeste 0 -- -- 85
2017-09-05 08:00:00 15.4 4 Noroeste 6 Noroeste 0 -- -- 97
2017-09-05 07:00:00 15.2 3 Oeste 4 Oeste 0 -- -- 96
2017-09-05 06:00:00 15.7 2 Oeste 5 Oeste 0 -- -- 94
2017-09-05 05:00:00 15.9 2 Oeste 6 Noroeste 0 -- -- 94
2017-09-05 04:00:00 16.4 0 Calma 6 Oeste 0 -- -- 93
2017-09-05 03:00:00 16.8 2 Oeste 8 Oeste 0 -- -- 91
2017-09-05 02:00:00 17 3 Noroeste 6 Noroeste 0 -- -- 91
2017-09-05 01:00:00 17.5 0 Calma 5 Noroeste 0 -- -- 91
2017-09-05 00:00:00 18.3 3 Oeste 7 Oeste 0 -- -- 91
2017-09-04 23:00:00 18.9 3 Oeste 9 Noroeste 0 -- -- 90
2017-09-04 22:00:00 19.7 5 Noroeste 8 Noroeste 0 -- -- 90
2017-09-04 21:00:00 20.8 0 Calma 7 Este 0 -- -- 86
2017-09-04 20:00:00 22.7 5 Este 13 Sudeste 0 -- -- 80
2017-09-04 19:00:00 24.2 5 Este 19 Sudeste 0 -- -- 72
2017-09-04 18:00:00 25.6 11 Sudeste 23 Sudeste 0 -- -- 58
2017-09-04 17:00:00 25.5 12 Sudeste 27 Sudeste 0 -- -- 61
2017-09-04 16:00:00 24.7 10 Sudeste 27 Este 0 -- -- 66
2017-09-04 15:00:00 25.6 13 Sudeste 26 Sudeste 0 -- -- 62
2017-09-04 14:00:00 26.1 10 Sudeste 26 Sudeste 0 -- -- 58
2017-09-04 13:00:00 26.8 11 Sudeste 20 Sudeste 0 -- -- 52
2017-09-04 12:00:00 26.5 11 Sudeste 18 Este 0 -- -- 57
2017-09-04 11:00:00 23.8 3 Oeste 9 Norte 0 -- -- 54
2017-09-04 10:00:00 21.2 4 Noroeste 11 Noroeste 0 -- -- 64
2017-09-04 09:00:00 18.7 4 Noroeste 10 Oeste 0 -- -- 83
2017-09-04 08:00:00 17.4 3 Sur 7 Sur 0 -- -- 86
2017-09-04 07:00:00 17.4 5 Oeste 8 Oeste 0 -- -- 85
2017-09-04 06:00:00 17.5 4 Noroeste 8 Noroeste 0 -- -- 84
2017-09-04 05:00:00 17.7 0 Calma -- -- 0 -- -- 85
2017-09-04 04:00:00 18 0 Calma -- -- 0 -- -- 84
2017-09-04 03:00:00 18.3 0 Calma -- -- 0 -- -- 82
2017-09-04 02:00:00 18.2 0 Calma -- -- 0 -- -- 80
2017-09-04 01:00:00 18.9 0 Calma -- -- 0 -- -- 78
2017-09-04 00:00:00 19.1 0 Calma -- -- 0 -- -- 78
2017-09-03 23:00:00 19.4 0 Calma -- -- 0 -- -- 79
2017-09-03 22:00:00 19.9 0 Calma 3 Norte 0 -- -- 73
2017-09-03 21:00:00 20.1 3 Norte 9 Este 0 -- -- 72
2017-09-03 20:00:00 20.7 4 Este 13 Este 0 -- -- 69
2017-09-03 19:00:00 21.8 5 Este 18 Este 0 -- -- 61
2017-09-03 18:00:00 24 8 Sudeste 25 Sudeste 0 -- -- 49
2017-09-03 17:00:00 22.9 9 Sudeste 25 Sudeste 0 -- -- 53
2017-09-03 16:00:00 23.2 9 Sudeste 23 Este 0 -- -- 52
2017-09-03 15:00:00 24.1 8 Sudeste 23 Este 0 -- -- 55
2017-09-03 14:00:00 23.9 10 Este 21 Este 0 -- -- 52
2017-09-03 13:00:00 25.6 13 Sudeste 23 Sudeste 0 -- -- 45
2017-09-03 12:00:00 25.3 7 Sudeste 14 Sudeste 0 -- -- 43
2017-09-03 11:00:00 23.7 4 Nordeste 10 Sudeste 0 -- -- 43
2017-09-03 10:00:00 21.4 4 Oeste 11 Oeste 0 -- -- 46
2017-09-03 09:00:00 19.2 5 Noroeste 10 Noroeste 0 -- -- 58
2017-09-03 08:00:00 17.7 3 Noroeste 9 Noroeste 0 -- -- 61
2017-09-03 07:00:00 17.9 5 Noroeste 9 Oeste 0 -- -- 60
2017-09-03 06:00:00 17.9 4 Oeste 9 Noroeste 0 -- -- 61
2017-09-03 05:00:00 18.3 0 Calma 8 Noroeste 0 -- -- 62
2017-09-03 04:00:00 19.4 7 Noroeste 17 Noroeste 0 -- -- 53
2017-09-03 03:00:00 20 9 Noroeste 19 Noroeste 0 -- -- 50
2017-09-03 02:00:00 20.1 9 Noroeste 23 Noroeste 0 -- -- 50
2017-09-03 01:00:00 20.7 12 Noroeste 25 Noroeste 0 -- -- 48
2017-09-03 00:00:00 20.5 10 Noroeste 28 Noroeste 0 -- -- 49
2017-09-02 23:00:00 20.8 13 Noroeste 25 Noroeste 0 -- -- 47
2017-09-02 22:00:00 21.3 14 Noroeste 26 Noroeste 0 -- -- 47
2017-09-02 21:00:00 21.6 13 Norte 24 Norte 0 -- -- 46
2017-09-02 20:00:00 23.3 9 Noroeste 28 Norte 0 -- -- 40
2017-09-02 19:00:00 24.9 12 Noroeste 44 Norte 0 -- -- 36
2017-09-02 18:00:00 26.7 20 Noroeste 48 Noroeste 0 -- -- 31
2017-09-02 17:00:00 27.2 26 Noroeste 47 Noroeste 0 -- -- 29
2017-09-02 16:00:00 27.2 26 Noroeste 52 Noroeste 0 -- -- 30
2017-09-02 15:00:00 26.7 22 Noroeste 41 Norte 0 -- -- 33
2017-09-02 14:00:00 26 19 Norte 43 Norte 0 -- -- 34
2017-09-02 13:00:00 24.8 23 Norte 47 Noroeste 0 -- -- 36
2017-09-02 12:00:00 23.6 23 Noroeste 46 Noroeste 0 -- -- 38
2017-09-02 11:00:00 22.6 22 Norte 43 Norte 0 -- -- 40
2017-09-02 10:00:00 21 23 Norte 42 Norte 0 -- -- 46
2017-09-02 09:00:00 19.5 18 Noroeste 41 Noroeste 0 -- -- 49
2017-09-02 08:00:00 17.7 18 Norte 36 Norte 0 -- -- 58
2017-09-02 07:00:00 17.5 22 Norte 42 Norte 0 -- -- 58
2017-09-02 06:00:00 18.1 16 Noroeste 45 Norte 0 -- -- 55
2017-09-02 05:00:00 18.5 19 Noroeste 40 Noroeste 0 -- -- 55
2017-09-02 04:00:00 18.5 16 Noroeste 35 Noroeste 0 -- -- 58
2017-09-02 03:00:00 17.8 8 Norte 23 Noroeste 0.2 -- -- 68
2017-09-02 02:00:00 17.8 15 Norte 31 Noroeste 0.2 -- -- 73
2017-09-02 01:00:00 20.2 17 Norte 36 Norte 0 -- -- 55
2017-09-02 00:00:00 20.6 15 Norte 36 Noroeste 0 -- -- 53
2017-09-01 23:00:00 21.5 15 Noroeste 35 Norte 0 -- -- 49
2017-09-01 22:00:00 22.3 15 Noroeste 39 Norte 0 -- -- 45
2017-09-01 21:00:00 22.6 13 Noroeste 29 Noroeste 0 -- -- 44
2017-09-01 20:00:00 23.4 11 Noroeste 28 Noroeste 0 -- -- 41
2017-09-01 19:00:00 24.3 14 Noroeste 32 Noroeste 0 -- -- 38
2017-09-01 18:00:00 25.3 16 Noroeste 32 Noroeste 0 -- -- 37
2017-09-01 17:00:00 26.1 17 Norte 35 Oeste 0 -- -- 38
2017-09-01 16:00:00 25.6 17 Noroeste 34 Noroeste 0 -- -- 43
2017-09-01 15:00:00 25.1 17 Noroeste 31 Noroeste 0 -- -- 42
2017-09-01 14:00:00 24.9 15 Noroeste 32 Noroeste 0 -- -- 46
2017-09-01 13:00:00 23.2 14 Noroeste 28 Noroeste 0 -- -- 48
2017-09-01 12:00:00 22 13 Noroeste 29 Norte 0 -- -- 52
2017-09-01 11:00:00 21.2 11 Noroeste 24 Norte 0 -- -- 56
2017-09-01 10:00:00 19.7 6 Noroeste 13 Noroeste 0 -- -- 62
2017-09-01 09:00:00 18.3 4 Noroeste 14 Noroeste 0 -- -- 76
2017-09-01 08:00:00 17.2 6 Noroeste 12 Noroeste 0 -- -- 81
2017-09-01 07:00:00 16.6 4 Noroeste 11 Noroeste 0 -- -- 92
2017-09-01 06:00:00 15.5 0 Calma 6 Noroeste 0 -- -- 100
2017-09-01 05:00:00 15.3 0 Calma 5 Sudoeste 0 -- -- 100
2017-09-01 04:00:00 14.9 4 Sudoeste 8 Sudoeste 0 -- -- 100
2017-09-01 03:00:00 14.9 0 Calma -- -- 0 -- -- 100
2017-09-01 02:00:00 14.9 0 Calma 4 Noroeste 0 -- -- 100
2017-09-01 01:00:00 14.9 0 Calma 6 Sudoeste 0 -- -- 100
2017-09-01 00:00:00 15.5 0 Calma 10 Noroeste 0 -- -- 98
2017-08-31 23:00:00 16.3 5 Noroeste 10 Noroeste 0 -- -- 97
2017-08-31 22:00:00 16.6 2 Noroeste 8 Oeste 0 -- -- 99
2017-08-31 21:00:00 16.9 3 Oeste 9 Oeste 0.2 -- -- 98
2017-08-31 20:00:00 17.3 5 Oeste 14 Oeste 1.4 -- -- 99
2017-08-31 19:00:00 17.2 3 Oeste 23 Noroeste 10 -- -- 98
2017-08-31 18:00:00 20.3 8 Oeste 20 Norte 0 -- -- 75
2017-08-31 17:00:00 21.1 10 Noroeste 19 Oeste 0 -- -- 74
2017-08-31 16:00:00 20.5 6 Noroeste 15 Oeste 0 -- -- 78
2017-08-31 15:00:00 20.6 0 Calma 8 Sudeste 0 -- -- 84
2017-08-31 14:00:00 21.6 4 Sur 8 Sudeste 0.2 -- -- 84
2017-08-31 13:00:00 22.8 4 Sudoeste 15 Norte 0 -- -- 79
2017-08-31 12:00:00 23.6 10 Noroeste 17 Noroeste 0 -- -- 74
2017-08-31 11:00:00 21.9 4 Sur 8 Nordeste 0.2 -- -- 91
2017-08-31 10:00:00 20 4 Sudoeste 8 Noroeste 0.4 -- -- 94
2017-08-31 09:00:00 19.4 4 Noroeste 15 Noroeste 0.6 -- -- 93
2017-08-31 08:00:00 19.7 8 Noroeste 17 Noroeste 0 -- -- 87
2017-08-31 07:00:00 20.5 0 Calma 6 Oeste 0.2 -- -- 88
2017-08-31 06:00:00 21.5 0 Calma 5 Sudeste 0 -- -- 86
2017-08-31 05:00:00 22.5 3 Oeste 10 Oeste 0 -- -- 79
2017-08-31 04:00:00 22.9 5 Oeste 13 Sudeste 0 -- -- 79
2017-08-31 03:00:00 21.7 5 Este 10 Este 0 -- -- 80
2017-08-31 02:00:00 22.4 4 Nordeste 13 Sur 0 -- -- 70
2017-08-31 01:00:00 22.1 5 Norte 11 Norte 0 -- -- 70
2017-08-31 00:00:00 23.2 3 Sur 14 Sudoeste 0 -- -- 64
2017-08-30 23:00:00 25.4 7 Sudoeste 15 Sudoeste 0 -- -- 54
2017-08-30 22:00:00 26.4 7 Sudoeste 24 Sudoeste 0 -- -- 53
2017-08-30 21:00:00 28 10 Sur 32 Sudoeste 0 -- -- 45
2017-08-30 20:00:00 29.8 14 Sur 39 Sudoeste 0 -- -- 42
2017-08-30 19:00:00 31.4 15 Sur 34 Sur 0 -- -- 42
2017-08-30 18:00:00 33.1 16 Sur 39 Sudoeste 0 -- -- 38
2017-08-30 17:00:00 34.4 19 Sur 48 Sur 0 -- -- 35
2017-08-30 16:00:00 35.3 18 Sur 48 Sudoeste 0 -- -- 32
2017-08-30 15:00:00 34.9 14 Sudoeste 32 Sur 0 -- -- 34
2017-08-30 14:00:00 32.1 12 Sur 30 Sur 0 -- -- 38
2017-08-30 13:00:00 31.6 11 Sudeste 25 Sudeste 0 -- -- 49
2017-08-30 12:00:00 31.1 9 Sur 18 Sur 0 -- -- 45
2017-08-30 11:00:00 28.1 12 Sur 22 Sur 0 -- -- 55
2017-08-30 10:00:00 22 2 Este 13 Sudoeste 0 -- -- 93
2017-08-30 09:00:00 21.9 3 Oeste 8 Sudoeste 0 -- -- 99
2017-08-30 08:00:00 20.4 2 Este 6 Norte 0 -- -- 100
2017-08-30 07:00:00 20.2 0 Calma -- -- 0 -- -- 100
2017-08-30 06:00:00 20.8 0 Calma 5 Norte 0 -- -- 100
2017-08-30 05:00:00 21 2 Noroeste 6 Oeste 0 -- -- 100
2017-08-30 04:00:00 21.3 0 Calma 5 Noroeste 0 -- -- 100
2017-08-30 03:00:00 21.2 2 Oeste 5 Oeste 0 -- -- 100
2017-08-30 02:00:00 21.8 0 Calma 7 Sudeste 0 -- -- 100
2017-08-30 01:00:00 22.1 6 Sudeste 13 Sudeste 0 -- -- 100
2017-08-30 00:00:00 21.7 5 Sudeste 8 Sudeste 0 -- -- 97
2017-08-29 23:00:00 22.7 0 Calma 5 Noroeste 0 -- -- 95
2017-08-29 22:00:00 23.8 0 Calma 6 Oeste 0 -- -- 92
2017-08-29 21:00:00 25.4 3 Sudoeste 5 Sudoeste 0 -- -- 88
2017-08-29 20:00:00 27.3 2 Sur 6 Sudeste 0 -- -- 81
2017-08-29 19:00:00 28 0 Calma 26 Este 0 -- -- 78
2017-08-29 18:00:00 27.8 12 Este 30 Este 0 -- -- 80
2017-08-29 17:00:00 28.7 10 Este 28 Este 0 -- -- 78
2017-08-29 16:00:00 28.5 14 Este 29 Este 0 -- -- 78
2017-08-29 15:00:00 28.7 13 Este 27 Sudeste 0 -- -- 76
2017-08-29 14:00:00 29.5 12 Este 27 Este 0 -- -- 71
2017-08-29 13:00:00 29.4 10 Sudeste 24 Este 0 -- -- 72
2017-08-29 12:00:00 28.7 9 Este 20 Este 0 -- -- 73
2017-08-29 11:00:00 27.7 7 Sudeste 14 Sudeste 0 -- -- 75
2017-08-29 10:00:00 25.4 2 Sur 6 Oeste 0 -- -- 82
2017-08-29 09:00:00 22.2 0 Calma 2 Oeste 0 -- -- 90
2017-08-29 08:00:00 19.3 0 Calma 7 Oeste 0 -- -- 98
2017-08-29 07:00:00 19.6 4 Oeste 7 Sudoeste 0 -- -- 98
2017-08-29 06:00:00 19.5 4 Sudeste 8 Sudeste 0 -- -- 97
2017-08-29 05:00:00 20.2 3 Oeste 6 Noroeste 0 -- -- 97
2017-08-29 04:00:00 20.9 0 Calma 6 Oeste 0 -- -- 96
2017-08-29 03:00:00 21.6 3 Noroeste 6 Noroeste 0 -- -- 95
2017-08-29 02:00:00 21.8 0 Calma 6 Norte 0 -- -- 96
2017-08-29 01:00:00 22.1 0 Calma 4 Sudoeste 0 -- -- 96
2017-08-29 00:00:00 22.1 0 Calma 5 Sudoeste 0 -- -- 95
2017-08-28 23:00:00 22.2 4 Oeste 6 Noroeste 0 -- -- 96
2017-08-28 22:00:00 22.6 0 Calma -- -- 0 -- -- 95
2017-08-28 21:00:00 23.6 0 Calma 6 Nordeste 0 -- -- 93
2017-08-28 20:00:00 24.4 4 Este 14 Sudeste 0 -- -- 91
2017-08-28 19:00:00 25.4 6 Este 26 Sudeste 0 -- -- 83
2017-08-28 18:00:00 27.8 14 Sudeste 26 Sudeste 0 -- -- 77
2017-08-28 17:00:00 28.3 14 Sudeste 32 Sudeste 0 -- -- 76
2017-08-28 16:00:00 28.3 12 Sudeste 31 Sudeste 0 -- -- 76
2017-08-28 15:00:00 28.5 16 Sudeste 30 Sudeste 0 -- -- 72
2017-08-28 14:00:00 28.2 12 Sudeste 26 Este 0 -- -- 74
2017-08-28 13:00:00 28.4 11 Sudeste 23 Sudeste 0 -- -- 74
2017-08-28 12:00:00 27.5 8 Sudeste 18 Sudeste 0 -- -- 79
2017-08-28 11:00:00 26.4 5 Sudeste 12 Sudeste 0 -- -- 86
2017-08-28 10:00:00 22.3 3 Nordeste 5 Nordeste 0 -- -- 100
2017-08-28 09:00:00 21.5 0 Calma 0 Calma 0 -- -- 100
2017-08-28 08:00:00 20.6 0 Calma 3 Noroeste 0 -- -- 100
2017-08-28 07:00:00 20.2 0 Calma 5 Sudeste 0 -- -- 100
2017-08-28 06:00:00 19.8 3 Oeste 5 Noroeste 0 -- -- 100
2017-08-28 05:00:00 20 0 Calma -- -- 0 -- -- 99
2017-08-28 04:00:00 20.6 0 Calma 2 Norte 0 -- -- 98
2017-08-28 03:00:00 21.3 0 Calma 8 Noroeste 0 -- -- 97
2017-08-28 02:00:00 22 3 Noroeste 7 Oeste 0 -- -- 97
2017-08-28 01:00:00 22.8 3 Sudoeste 13 Sudeste 0 -- -- 96
2017-08-28 00:00:00 23.2 8 Sudeste 19 Sudeste 0 -- -- 95
2017-08-27 23:00:00 23.2 6 Sudeste 11 Sudeste 0 -- -- 97
2017-08-27 22:00:00 23.1 6 Nordeste 11 Nordeste 0 -- -- 97
2017-08-27 21:00:00 23.6 4 Este 13 Sudeste 0 -- -- 95
2017-08-27 20:00:00 24.4 4 Sudeste 17 Sudeste 0 -- -- 91
2017-08-27 19:00:00 26 7 Sudeste 20 Sudeste 0 -- -- 84
2017-08-27 18:00:00 27.1 7 Sudeste 23 Sudeste 0 -- -- 80
2017-08-27 17:00:00 27.4 12 Sudeste 26 Sudeste 0 -- -- 76
2017-08-27 16:00:00 27.9 12 Sudeste 30 Sudeste 0 -- -- 74
2017-08-27 15:00:00 28.1 13 Sudeste 27 Sudeste 0 -- -- 75
2017-08-27 14:00:00 28.2 13 Sudeste 26 Sudeste 0 -- -- 74
2017-08-27 13:00:00 27.9 11 Sudeste 22 Sudeste 0 -- -- 75
2017-08-27 12:00:00 28.6 9 Sudeste 18 Sudeste 0 -- -- 72
2017-08-27 11:00:00 27.7 9 Sudeste 14 Sur 0 -- -- 76
2017-08-27 10:00:00 26.1 5 Este 11 Este 0 -- -- 81
2017-08-27 09:00:00 23.5 4 Norte 7 Noroeste 0 -- -- 95
2017-08-27 08:00:00 21.8 2 Noroeste 6 Oeste 0 -- -- 100
2017-08-27 07:00:00 20.9 0 Calma -- -- 0 -- -- 99
2017-08-27 06:00:00 21.8 0 Calma -- -- 0 -- -- 99
2017-08-27 05:00:00 22.3 0 Calma 0 Calma 0 -- -- 100
2017-08-27 04:00:00 22.6 0 Calma -- -- 0 -- -- 100
2017-08-27 03:00:00 22.7 0 Calma -- -- 0 -- -- 100
2017-08-27 02:00:00 22.3 0 Calma 6 Este 0 -- -- 100
2017-08-27 01:00:00 22.3 2 Este 6 Sudeste 0 -- -- 99
2017-08-27 00:00:00 22.8 0 Calma 11 Sudeste 0 -- -- 99
2017-08-26 23:00:00 23 5 Sudeste 14 Sudeste 0 -- -- 99
2017-08-26 22:00:00 23.3 7 Este 15 Este 0 -- -- 98
2017-08-26 21:00:00 23.9 5 Sudeste 18 Este 0 -- -- 95
2017-08-26 20:00:00 25.1 6 Sudeste 23 Sudeste 0 -- -- 92
2017-08-26 19:00:00 26.2 9 Este 25 Sudeste 0 -- -- 88
2017-08-26 18:00:00 27.8 10 Este 26 Sudeste 0 -- -- 82
2017-08-26 17:00:00 28.2 12 Este 28 Sudeste 0 -- -- 80
2017-08-26 16:00:00 29 13 Este 30 Sudeste 0 -- -- 77
2017-08-26 15:00:00 29.5 12 Sudeste 27 Sudeste 0 -- -- 75
2017-08-26 14:00:00 29.5 11 Este 26 Sudeste 0 -- -- 75
2017-08-26 13:00:00 28.3 11 Este 25 Sudeste 0 -- -- 79
2017-08-26 12:00:00 27.4 8 Este 21 Sudeste 0 -- -- 82
2017-08-26 11:00:00 26.5 6 Este 12 Este 0 -- -- 87
2017-08-26 10:00:00 25 4 Nordeste 6 Norte 0 -- -- 91
2017-08-26 09:00:00 22.7 0 Calma 3 Noroeste 0 -- -- 99
2017-08-26 08:00:00 21.4 0 Calma 6 Oeste 0 -- -- 100
2017-08-26 07:00:00 21.1 3 Sur 5 Sudoeste 0 -- -- 100
2017-08-26 06:00:00 21.2 3 Noroeste 5 Oeste 0 -- -- 100
2017-08-26 05:00:00 21.2 3 Oeste 5 Sudoeste 0 -- -- 100
2017-08-26 04:00:00 21.1 0 Calma 6 Este 0 -- -- 100
2017-08-26 03:00:00 20.7 3 Nordeste 8 Este 0 -- -- 99
2017-08-26 02:00:00 21.4 0 Calma 9 Sudeste 0 -- -- 99
2017-08-26 01:00:00 21.9 2 Este 7 Sudeste 0 -- -- 98
2017-08-26 00:00:00 22.4 0 Calma 10 Sudeste 0 -- -- 96